Time;durP1;ratioP1;P1;durP2;ratioP2;P2;SDS_P1;SDS_P2;PMS_P1;PMS_P2;Temp;Humidity;BMP_temperature;BMP_pressure;BME280_temperature;BME280_humidity;BME280_pressure;Samples;Min_cycle;Max_cycle;Signal;HPM_P1;HPM_P2
2022/07/14 00:01:10;;;;;;;3.93;2.47;;;24.90;65.50;;;;;;4915205;29;20513;-67
2022/07/14 00:03:40;;;;;;;4.47;2.83;;;25.00;65.00;;;;;;4914963;29;20513;-66
2022/07/14 00:06:08;;;;;;;4.60;2.80;;;25.00;64.90;;;;;;4914766;29;20443;-66
2022/07/14 00:08:36;;;;;;;6.33;2.70;;;25.00;64.70;;;;;;4912773;29;20487;-66
2022/07/14 00:11:07;;;;;;;2.90;2.53;;;25.00;64.40;;;;;;4911388;29;20469;-66
2022/07/14 00:13:36;;;;;;;2.57;2.37;;;25.00;64.30;;;;;;4914013;29;20449;-66
2022/07/14 00:16:08;;;;;;;3.60;2.13;;;25.00;64.30;;;;;;4914385;29;20573;-66
2022/07/14 00:18:43;;;;;;;4.50;2.43;;;25.00;64.20;;;;;;4914110;29;20455;-66
2022/07/14 00:21:14;;;;;;;6.30;3.43;;;25.00;64.00;;;;;;4914948;29;20899;-66
2022/07/14 00:23:42;;;;;;;3.73;2.30;;;25.10;63.90;;;;;;4919984;29;20476;-66
2022/07/14 00:26:11;;;;;;;4.10;3.80;;;25.10;63.70;;;;;;4927973;29;20641;-66
2022/07/14 00:28:40;;;;;;;4.87;3.10;;;25.10;63.80;;;;;;4915238;29;20476;-66
2022/07/14 00:31:09;;;;;;;5.73;2.90;;;25.10;63.90;;;;;;4917526;29;20602;-66
2022/07/14 00:33:39;;;;;;;3.70;2.67;;;25.00;64.20;;;;;;4933602;29;20455;-66
2022/07/14 00:36:08;;;;;;;3.27;2.80;;;24.90;64.50;;;;;;4915913;29;20934;-66
2022/07/14 00:38:38;;;;;;;4.27;2.63;;;24.80;64.90;;;;;;4933387;29;20459;-67
2022/07/14 00:41:06;;;;;;;4.23;2.50;;;24.80;65.20;;;;;;4922854;29;20453;-66
2022/07/14 00:43:35;;;;;;;3.53;2.50;;;24.80;65.20;;;;;;4908280;29;20474;-66
2022/07/14 00:46:05;;;;;;;5.10;2.77;;;24.80;65.00;;;;;;4934056;29;20920;-67
2022/07/14 00:48:34;;;;;;;6.73;3.70;;;24.70;65.40;;;;;;4916364;29;20492;-67
2022/07/14 00:51:04;;;;;;;4.30;3.27;;;24.60;65.80;;;;;;4916600;29;20465;-67
2022/07/14 00:53:33;;;;;;;5.80;3.23;;;24.40;66.20;;;;;;4932628;29;20492;-67
2022/07/14 00:56:05;;;;;;;6.33;3.70;;;24.30;66.60;;;;;;4916335;29;20796;-67
2022/07/14 00:58:34;;;;;;;5.27;3.13;;;24.10;66.90;;;;;;4921711;29;20461;-67
2022/07/14 01:01:05;;;;;;;3.80;3.40;;;23.70;68.00;;;;;;4927659;29;20459;-66
2022/07/14 01:03:35;;;;;;;3.37;2.70;;;23.60;68.30;;;;;;4936150;29;20489;-66
2022/07/14 01:06:06;;;;;;;3.50;3.10;;;23.70;68.20;;;;;;4937527;29;20453;-66
2022/07/14 01:08:35;;;;;;;6.07;3.40;;;23.80;67.70;;;;;;4936612;29;20461;-67
2022/07/14 01:11:07;;;;;;;3.13;2.83;;;23.90;67.50;;;;;;4934909;29;20472;-67
2022/07/14 01:13:37;;;;;;;3.50;2.90;;;24.00;66.90;;;;;;4937231;29;20544;-67
2022/07/14 01:16:05;;;;;;;3.27;2.60;;;24.00;66.70;;;;;;4936954;29;20506;-67
2022/07/14 01:18:34;;;;;;;6.90;3.30;;;23.90;66.80;;;;;;4936394;29;20457;-69
2022/07/14 01:21:05;;;;;;;3.20;2.80;;;23.80;67.10;;;;;;4920051;29;20490;-66
2022/07/14 01:23:35;;;;;;;4.60;3.00;;;23.70;67.10;;;;;;4936296;29;20491;-66
2022/07/14 01:26:07;;;;;;;3.30;2.93;;;23.70;66.80;;;;;;4935691;29;20448;-66
2022/07/14 01:28:35;;;;;;;3.53;3.07;;;23.60;66.90;;;;;;4919891;29;20468;-66
2022/07/14 01:31:05;;;;;;;4.40;2.77;;;23.30;67.30;;;;;;4936307;29;20514;-66
2022/07/14 01:33:34;;;;;;;3.47;3.17;;;23.20;67.70;;;;;;4918509;29;20963;-67
2022/07/14 01:36:05;;;;;;;3.80;3.03;;;23.40;67.30;;;;;;4919979;29;20465;-67
2022/07/14 01:38:35;;;;;;;4.40;3.47;;;23.50;67.00;;;;;;4935787;29;20534;-66
2022/07/14 01:41:06;;;;;;;4.77;4.10;;;23.60;66.70;;;;;;4934357;29;20465;-67
2022/07/14 01:43:36;;;;;;;4.83;3.90;;;23.70;66.40;;;;;;4913019;29;20525;-67
2022/07/14 01:46:08;;;;;;;7.53;6.13;;;23.80;65.90;;;;;;4916246;29;20450;-67
2022/07/14 01:48:37;;;;;;;11.13;6.37;;;23.90;65.70;;;;;;4918385;29;20467;-68
2022/07/14 01:51:08;;;;;;;5.53;3.77;;;23.80;65.90;;;;;;4936488;29;20851;-67
2022/07/14 01:53:40;;;;;;;8.00;3.30;;;23.70;66.30;;;;;;4919331;29;20448;-66
2022/07/14 01:56:09;;;;;;;2.33;2.13;;;23.50;66.40;;;;;;4918331;29;20505;-68
2022/07/14 01:58:38;;;;;;;3.40;2.53;;;23.50;66.60;;;;;;4919625;29;20517;-66
2022/07/14 02:03:58;;;;;;;3.20;2.97;;;23.50;66.90;;;;;;4915827;29;20473;-67
2022/07/14 02:06:26;;;;;;;5.20;2.93;;;23.50;66.80;;;;;;4901863;29;20466;-66
2022/07/14 02:08:56;;;;;;;4.00;2.50;;;23.50;66.90;;;;;;4916148;29;20923;-66
2022/07/14 02:14:11;;;;;;;3.60;2.30;;;23.30;67.30;;;;;;4918579;29;20473;-66
2022/07/14 02:16:40;;;;;;;2.80;2.60;;;23.30;67.20;;;;;;4918688;29;20460;-66
2022/07/14 02:19:08;;;;;;;5.53;2.80;;;23.20;67.50;;;;;;4918795;29;20854;-66
2022/07/14 02:21:39;;;;;;;3.53;2.80;;;23.10;67.70;;;;;;4918449;29;20524;-66
2022/07/14 02:24:09;;;;;;;4.07;2.27;;;23.20;67.40;;;;;;4923808;29;20936;-66
2022/07/14 02:26:39;;;;;;;4.40;1.87;;;23.30;67.20;;;;;;4933284;29;20489;-66
2022/07/14 02:29:07;;;;;;;3.60;2.60;;;23.40;66.90;;;;;;4935096;29;20471;-66
2022/07/14 02:31:36;;;;;;;3.40;2.47;;;23.30;66.70;;;;;;4934485;29;20488;-66
2022/07/14 02:34:05;;;;;;;5.70;2.50;;;23.30;66.60;;;;;;4936012;29;20487;-66
2022/07/14 02:36:34;;;;;;;3.03;2.77;;;23.30;66.80;;;;;;4936181;29;20936;-66
2022/07/14 02:39:02;;;;;;;3.93;2.57;;;23.40;66.70;;;;;;4933825;29;20444;-66
2022/07/14 02:41:31;;;;;;;3.40;2.87;;;23.50;66.60;;;;;;4921049;29;20510;-66
2022/07/14 02:44:00;;;;;;;4.30;3.20;;;23.50;66.60;;;;;;4914760;29;20460;-67
2022/07/14 02:46:28;;;;;;;3.43;2.90;;;23.60;66.60;;;;;;4928195;29;20469;-66
2022/07/14 02:48:58;;;;;;;3.60;2.70;;;23.70;66.70;;;;;;4934373;29;20778;-66
2022/07/14 02:51:27;;;;;;;4.10;2.70;;;23.70;66.70;;;;;;4935939;29;20524;-67
2022/07/14 02:53:55;;;;;;;3.17;2.83;;;23.70;66.80;;;;;;4929012;29;20500;-66
2022/07/14 02:56:24;;;;;;;3.43;2.60;;;23.70;66.60;;;;;;4934120;29;20499;-66
2022/07/14 02:58:54;;;;;;;3.37;3.07;;;23.80;66.30;;;;;;4935480;29;20457;-66
2022/07/14 03:01:23;;;;;;;3.90;2.97;;;23.70;66.70;;;;;;4930996;29;20503;-66
2022/07/14 03:03:51;;;;;;;3.37;3.07;;;23.60;67.20;;;;;;4933639;29;20489;-66
2022/07/14 03:06:20;;;;;;;4.37;3.13;;;23.30;67.60;;;;;;4934627;29;20453;-66
2022/07/14 03:08:52;;;;;;;4.57;3.07;;;23.20;67.70;;;;;;4933412;29;20862;-66
2022/07/14 03:11:22;;;;;;;3.67;3.37;;;22.90;68.00;;;;;;4929770;29;20465;-66
2022/07/14 03:13:50;;;;;;;4.70;3.37;;;22.50;68.60;;;;;;4933560;29;20488;-66
2022/07/14 03:16:21;;;;;;;5.20;3.03;;;22.30;69.20;;;;;;4918915;29;20492;-67
2022/07/14 03:18:52;;;;;;;3.30;3.00;;;22.10;69.60;;;;;;4932353;29;20556;-66
2022/07/14 03:21:22;;;;;;;3.87;3.00;;;22.10;69.80;;;;;;4935329;29;20455;-66
2022/07/14 03:23:54;;;;;;;5.30;4.20;;;22.00;69.80;;;;;;4932201;29;20746;-66
2022/07/14 03:26:28;;;;;;;7.53;4.03;;;22.00;69.80;;;;;;4933378;29;20478;-66
2022/07/14 03:28:56;;;;;;;5.10;3.80;;;21.80;70.10;;;;;;4933585;29;20482;-67
2022/07/14 03:31:26;;;;;;;6.13;4.37;;;21.80;70.10;;;;;;4932964;29;20506;-67
2022/07/14 03:33:56;;;;;;;12.90;6.33;;;21.70;70.40;;;;;;4933691;29;20556;-67
2022/07/14 03:36:25;;;;;;;5.13;4.67;;;21.70;70.60;;;;;;4933919;29;20587;-67
2022/07/14 03:38:53;;;;;;;5.27;4.77;;;21.80;70.50;;;;;;4933151;29;20459;-67
2022/07/14 03:41:21;;;;;;;5.90;4.03;;;22.00;70.20;;;;;;4932122;29;20467;-67
2022/07/14 03:43:50;;;;;;;4.80;4.30;;;22.20;69.60;;;;;;4933193;29;20468;-67
2022/07/14 03:46:20;;;;;;;5.50;3.77;;;22.40;69.30;;;;;;4928353;29;20467;-67
2022/07/14 03:49:03;;;;;;;3.93;3.53;;;22.50;69.10;;;;;;4944171;29;20490;-69
2022/07/14 03:51:32;;;;;;;4.23;3.30;;;22.50;69.00;;;;;;4932838;29;20502;-67
2022/07/14 03:54:00;;;;;;;3.43;3.13;;;22.30;69.60;;;;;;4932978;29;20471;-67
2022/07/14 03:56:31;;;;;;;4.10;3.00;;;22.30;69.70;;;;;;4931831;29;20470;-67
2022/07/14 03:59:00;;;;;;;4.63;4.17;;;22.40;69.50;;;;;;4932887;29;20448;-67
2022/07/14 04:01:28;;;;;;;5.20;3.80;;;22.40;69.30;;;;;;4929649;29;20502;-67
2022/07/14 04:04:00;;;;;;;4.03;3.70;;;22.20;69.70;;;;;;4932965;29;20475;-67
2022/07/14 04:06:29;;;;;;;5.10;3.50;;;22.00;69.80;;;;;;4933170;29;20953;-67
2022/07/14 04:09:01;;;;;;;4.07;3.40;;;22.10;70.10;;;;;;4932359;29;20471;-67
2022/07/14 04:11:31;;;;;;;5.00;3.43;;;22.30;69.80;;;;;;4931700;29;20508;-66
2022/07/14 04:14:01;;;;;;;5.67;4.73;;;22.50;69.20;;;;;;4932694;29;20499;-66
2022/07/14 04:16:30;;;;;;;5.63;4.60;;;22.60;69.00;;;;;;4932214;29;20879;-66
2022/07/14 04:18:59;;;;;;;5.10;4.00;;;22.60;68.70;;;;;;4931176;29;20465;-70
2022/07/14 04:21:29;;;;;;;3.97;3.50;;;22.70;68.90;;;;;;4931782;29;21003;-66
2022/07/14 04:23:57;;;;;;;4.10;3.73;;;22.70;68.70;;;;;;4932153;29;20476;-66
2022/07/14 04:26:26;;;;;;;4.80;3.90;;;22.50;69.10;;;;;;4912583;29;20464;-66
2022/07/14 04:28:55;;;;;;;4.40;3.70;;;22.50;69.30;;;;;;4897464;29;20461;-66
2022/07/14 04:31:23;;;;;;;6.00;3.90;;;22.60;69.20;;;;;;4906167;29;20502;-66
2022/07/14 04:33:52;;;;;;;6.53;3.47;;;22.60;69.20;;;;;;4914059;29;20966;-66
2022/07/14 04:36:20;;;;;;;3.70;2.93;;;22.60;68.90;;;;;;4931935;29;20526;-66
2022/07/14 04:38:50;;;;;;;5.90;3.50;;;22.70;69.00;;;;;;4914051;29;20553;-66
2022/07/14 04:41:19;;;;;;;4.40;3.37;;;22.80;68.90;;;;;;4913426;29;20475;-66
2022/07/14 04:43:48;;;;;;;3.90;3.40;;;22.70;69.20;;;;;;4914541;29;20471;-67
2022/07/14 04:46:16;;;;;;;3.40;3.10;;;22.60;69.40;;;;;;4908708;29;20488;-67
2022/07/14 04:54:29;;;;;;;3.70;3.00;;;22.70;69.70;;;;;;4920798;29;20873;-67
2022/07/14 04:57:20;;;;;;;5.10;3.37;;;22.70;69.80;;;;;;4915716;29;20460;-66
2022/07/14 04:59:50;;;;;;;3.60;3.30;;;22.70;69.60;;;;;;4910604;29;20468;-66
2022/07/14 05:02:20;;;;;;;4.17;3.60;;;22.70;69.60;;;;;;4908462;29;20462;-67
2022/07/14 05:04:50;;;;;;;6.27;4.23;;;22.80;69.70;;;;;;4909838;29;20475;-67
2022/07/14 05:07:18;;;;;;;7.07;4.80;;;22.80;70.00;;;;;;4912365;29;20472;-67
2022/07/14 05:09:55;;;;;;;9.63;7.17;;;22.80;69.80;;;;;;4915620;29;20479;-66
2022/07/14 05:12:23;;;;;;;6.70;6.03;;;23.00;69.50;;;;;;4926138;29;20468;-66
2022/07/14 05:14:52;;;;;;;7.30;3.83;;;22.80;68.90;;;;;;4908534;29;20469;-66
2022/07/14 05:17:20;;;;;;;6.90;6.10;;;22.80;68.70;;;;;;4911093;29;20465;-66
2022/07/14 05:20:00;;;;;;;8.37;3.73;;;22.70;68.70;;;;;;4910510;29;20463;-66
2022/07/14 05:22:35;;;;;;;5.67;3.67;;;22.60;68.90;;;;;;4915519;29;20463;-68
2022/07/14 05:25:08;;;;;;;3.20;2.90;;;22.40;69.60;;;;;;4926139;29;20478;-66
2022/07/14 05:27:37;;;;;;;3.10;2.80;;;22.30;69.20;;;;;;4924405;29;20471;-68
2022/07/14 05:30:06;;;;;;;5.07;3.40;;;22.20;69.90;;;;;;4930681;29;20464;-66
2022/07/14 05:32:36;;;;;;;3.30;3.00;;;22.20;69.80;;;;;;4927887;29;20488;-66
2022/07/14 05:35:08;;;;;;;5.97;3.00;;;22.30;69.50;;;;;;4930558;29;20470;-69
2022/07/14 05:37:37;;;;;;;4.83;3.43;;;22.40;69.50;;;;;;4930901;29;20475;-69
2022/07/14 05:40:09;;;;;;;4.40;3.23;;;22.60;68.40;;;;;;4927111;29;20534;-67
2022/07/14 05:42:37;;;;;;;5.73;3.70;;;22.80;68.70;;;;;;4927014;29;20457;-66
2022/07/14 05:45:08;;;;;;;4.80;3.80;;;23.00;68.10;;;;;;4926446;29;20468;-66
2022/07/14 05:47:36;;;;;;;5.83;4.70;;;23.10;68.10;;;;;;4931055;29;20940;-67
2022/07/14 05:50:04;;;;;;;3.97;3.60;;;23.10;67.50;;;;;;4935467;29;20438;-66
2022/07/14 05:52:33;;;;;;;4.90;3.70;;;23.20;67.40;;;;;;4933563;29;20515;-66
2022/07/14 05:55:01;;;;;;;3.80;3.50;;;23.40;67.20;;;;;;4931393;29;20556;-66
2022/07/14 05:57:32;;;;;;;4.37;3.07;;;23.60;66.80;;;;;;4931811;29;20580;-70
2022/07/14 06:00:09;;;;;;;7.50;4.40;;;23.70;67.10;;;;;;4928498;29;20950;-70
2022/07/14 06:02:49;;;;;;;6.67;3.53;;;23.90;67.10;;;;;;4933791;29;20457;-70
2022/07/14 06:05:26;;;;;;;4.80;3.20;;;24.00;65.80;;;;;;4934864;29;20463;-72
2022/07/14 06:07:55;;;;;;;11.47;4.23;;;23.90;65.80;;;;;;4932979;29;20499;-70
2022/07/14 06:10:23;;;;;;;5.20;3.97;;;23.90;65.10;;;;;;4925698;29;21021;-72
2022/07/14 06:12:55;;;;;;;7.10;3.50;;;23.70;65.50;;;;;;4935190;29;20484;-70
2022/07/14 06:15:25;;;;;;;7.00;3.70;;;23.80;66.60;;;;;;4926714;29;20467;-70
2022/07/14 06:17:55;;;;;;;3.70;3.33;;;24.00;67.20;;;;;;4935391;29;20462;-70
2022/07/14 06:20:23;;;;;;;7.80;3.77;;;24.10;66.40;;;;;;4935175;29;21063;-70
2022/07/14 06:22:52;;;;;;;5.37;4.10;;;24.10;64.00;;;;;;4931748;29;20477;-70
2022/07/14 06:25:21;;;;;;;3.57;2.97;;;23.90;64.00;;;;;;4933353;29;20543;-70
2022/07/14 06:27:50;;;;;;;5.40;3.10;;;23.90;63.90;;;;;;4933171;29;20888;-71
2022/07/14 06:30:19;;;;;;;7.00;4.23;;;23.70;63.60;;;;;;4930934;29;20575;-71
2022/07/14 06:32:47;;;;;;;5.13;3.23;;;23.70;63.70;;;;;;4933592;29;20480;-70
2022/07/14 06:35:17;;;;;;;6.50;4.10;;;23.80;64.10;;;;;;4925473;29;20454;-71
2022/07/14 06:37:45;;;;;;;7.37;4.30;;;24.00;63.50;;;;;;4929971;29;20493;-70
2022/07/14 06:40:14;;;;;;;6.60;4.20;;;23.80;63.30;;;;;;4928760;29;20453;-72
2022/07/14 06:42:46;;;;;;;8.37;4.37;;;23.80;63.90;;;;;;4933564;29;20470;-71
2022/07/14 06:45:27;;;;;;;4.13;3.60;;;24.10;63.90;;;;;;4931591;29;20486;-71
2022/07/14 06:47:56;;;;;;;5.47;4.03;;;24.40;62.00;;;;;;4934510;29;20861;-70
2022/07/14 06:50:25;;;;;;;5.30;4.00;;;24.40;61.50;;;;;;4933858;29;20457;-70
2022/07/14 06:52:54;;;;;;;4.33;2.83;;;24.50;61.70;;;;;;4934655;29;20484;-71
2022/07/14 06:55:22;;;;;;;3.63;3.10;;;24.60;61.30;;;;;;4935381;29;20921;-71
2022/07/14 06:57:51;;;;;;;3.63;3.20;;;24.70;61.00;;;;;;4933969;29;20516;-72
2022/07/14 07:00:29;;;;;;;4.40;3.40;;;24.80;60.90;;;;;;4933656;29;20464;-71
2022/07/14 07:02:57;;;;;;;3.77;3.37;;;24.90;60.90;;;;;;4929274;29;20461;-78
2022/07/14 07:08:13;;;;;;;3.57;3.27;;;24.70;60.90;;;;;;4929918;29;20551;-71
2022/07/14 07:10:41;;;;;;;3.33;3.00;;;24.70;61.40;;;;;;4930334;29;20543;-70
2022/07/14 07:13:12;;;;;;;3.43;2.87;;;24.80;61.40;;;;;;4929693;29;20473;-70
2022/07/14 07:15:41;;;;;;;4.63;3.00;;;25.00;61.20;;;;;;4935319;29;20504;-70
2022/07/14 07:18:10;;;;;;;4.63;2.93;;;25.00;61.20;;;;;;4934707;29;20456;-72
2022/07/14 07:20:38;;;;;;;3.63;2.87;;;25.10;60.70;;;;;;4932170;29;21888;-71
2022/07/14 07:23:07;;;;;;;3.43;3.13;;;25.20;60.80;;;;;;4934924;29;20449;-71
2022/07/14 07:25:35;;;;;;;2.97;2.77;;;25.30;60.60;;;;;;4932005;29;20572;-70
2022/07/14 07:28:04;;;;;;;4.20;2.10;;;25.40;60.90;;;;;;4933047;29;20857;-72
2022/07/14 07:30:32;;;;;;;6.47;2.90;;;25.40;60.10;;;;;;4934959;29;20455;-71
2022/07/14 07:33:02;;;;;;;3.00;2.70;;;25.30;60.30;;;;;;4933804;29;20469;-70
2022/07/14 07:35:30;;;;;;;3.20;2.90;;;25.30;60.20;;;;;;4931490;29;20535;-72
2022/07/14 07:38:06;;;;;;;5.00;2.83;;;25.30;59.90;;;;;;4930999;29;20850;-70
2022/07/14 07:40:35;;;;;;;3.00;2.40;;;25.40;58.90;;;;;;4933656;29;20526;-71
2022/07/14 07:43:03;;;;;;;4.07;2.90;;;25.70;59.00;;;;;;4934918;29;20459;-71
2022/07/14 07:45:31;;;;;;;3.10;2.80;;;25.90;58.20;;;;;;4931507;29;20447;-70
2022/07/14 07:48:03;;;;;;;4.50;2.57;;;26.00;57.80;;;;;;4924591;29;20456;-71
2022/07/14 07:50:32;;;;;;;3.23;2.70;;;26.10;57.30;;;;;;4932450;29;20989;-67
2022/07/14 07:53:00;;;;;;;2.70;2.40;;;26.20;56.30;;;;;;4934140;29;20481;-67
2022/07/14 07:55:28;;;;;;;2.87;2.57;;;26.20;57.20;;;;;;4929953;29;20487;-66
2022/07/14 07:57:57;;;;;;;3.03;2.73;;;26.30;57.10;;;;;;4933318;29;20510;-67
2022/07/14 08:00:25;;;;;;;5.80;3.60;;;26.50;57.40;;;;;;4933131;29;20920;-68
2022/07/14 08:02:55;;;;;;;4.07;2.70;;;26.60;55.80;;;;;;4931605;29;20467;-71
2022/07/14 08:05:26;;;;;;;4.30;2.70;;;26.70;56.30;;;;;;4916933;29;20571;-71
2022/07/14 08:08:14;;;;;;;5.00;2.30;;;26.80;56.10;;;;;;4933080;29;20456;-74
2022/07/14 08:10:42;;;;;;;3.30;2.57;;;26.80;56.00;;;;;;4933789;29;20521;-72
2022/07/14 08:13:11;;;;;;;2.90;2.60;;;26.80;55.20;;;;;;4929634;29;20469;-72
2022/07/14 08:15:39;;;;;;;3.07;2.80;;;26.80;55.70;;;;;;4928363;29;20444;-72
2022/07/14 08:18:09;;;;;;;3.47;2.17;;;26.80;54.90;;;;;;4930775;29;20458;-71
2022/07/14 08:20:39;;;;;;;3.13;2.63;;;26.90;55.10;;;;;;4929806;29;20457;-71
2022/07/14 08:23:07;;;;;;;2.80;2.60;;;27.00;55.20;;;;;;4931406;29;20548;-72
2022/07/14 08:25:35;;;;;;;2.60;2.40;;;27.10;54.60;;;;;;4937697;29;20451;-72
2022/07/14 08:28:04;;;;;;;3.10;2.80;;;27.20;55.00;;;;;;4935676;29;20445;-71
2022/07/14 08:30:32;;;;;;;3.27;2.53;;;27.20;54.60;;;;;;4933593;29;20468;-71
2022/07/14 08:33:00;;;;;;;3.80;2.57;;;27.30;54.30;;;;;;4932954;29;20544;-71
2022/07/14 08:35:29;;;;;;;2.50;2.30;;;27.30;53.80;;;;;;4932148;29;20457;-70
2022/07/14 08:37:59;;;;;;;3.97;2.50;;;27.40;53.60;;;;;;4938670;29;21018;-70
2022/07/14 08:40:28;;;;;;;2.47;2.20;;;27.40;52.40;;;;;;4931660;29;21058;-72
2022/07/14 08:42:57;;;;;;;2.30;2.03;;;27.50;53.60;;;;;;4934505;29;20481;-71
2022/07/14 08:45:27;;;;;;;3.37;2.20;;;27.60;53.20;;;;;;4933367;29;20541;-71
2022/07/14 08:47:56;;;;;;;3.83;2.60;;;27.60;53.00;;;;;;4930373;29;20525;-70
2022/07/14 08:50:26;;;;;;;2.53;2.33;;;27.70;52.60;;;;;;4929481;29;20501;-71
2022/07/14 08:52:54;;;;;;;2.70;2.50;;;27.80;52.90;;;;;;4932607;29;20534;-71
2022/07/14 08:55:24;;;;;;;7.93;3.23;;;27.80;52.40;;;;;;4929704;29;20458;-71
2022/07/14 08:57:52;;;;;;;3.17;2.23;;;27.90;52.70;;;;;;4938292;29;20458;-73
2022/07/14 09:00:21;;;;;;;2.60;2.40;;;27.90;51.50;;;;;;4933031;29;20450;-71
2022/07/14 09:02:51;;;;;;;4.20;2.67;;;28.00;52.40;;;;;;4933550;29;20456;-69
2022/07/14 09:05:41;;;;;;;3.70;2.47;;;28.10;52.50;;;;;;4933609;29;20470;-72
2022/07/14 09:08:11;;;;;;;2.30;2.10;;;28.10;52.50;;;;;;4933321;29;20554;-70
2022/07/14 09:10:42;;;;;;;2.70;2.37;;;28.20;51.50;;;;;;4932445;29;20449;-71
2022/07/14 09:13:33;;;;;;;5.33;2.90;;;28.30;52.10;;;;;;4926845;29;20479;-72
2022/07/14 09:16:17;;;;;;;3.47;2.03;;;28.30;50.90;;;;;;4933106;29;20479;-72
2022/07/14 09:19:07;;;;;;;2.70;1.90;;;28.40;51.40;;;;;;4929590;29;20488;-73
2022/07/14 09:21:37;;;;;;;3.13;2.23;;;28.40;51.90;;;;;;4936252;29;20449;-71
2022/07/14 09:24:06;;;;;;;4.67;2.20;;;28.50;52.30;;;;;;4930740;29;20523;-71
2022/07/14 09:26:43;;;;;;;2.90;1.97;;;28.60;52.50;;;;;;4937888;29;20505;-72
2022/07/14 09:29:18;;;;;;;6.17;2.17;;;28.60;52.70;;;;;;4936676;29;20454;-71
2022/07/14 09:31:47;;;;;;;2.30;2.10;;;28.70;53.00;;;;;;4931084;29;20493;-71
2022/07/14 09:34:31;;;;;;;3.00;2.20;;;28.70;53.30;;;;;;4926141;29;20513;-71
2022/07/14 09:37:13;;;;;;;3.60;2.30;;;28.70;53.60;;;;;;4936077;29;20454;-74
2022/07/14 09:39:52;;;;;;;2.43;2.00;;;28.60;53.80;;;;;;4930152;29;20919;-72
2022/07/14 09:42:22;;;;;;;2.20;2.00;;;28.60;54.00;;;;;;4901895;29;20460;-73
2022/07/14 09:45:08;;;;;;;3.63;1.90;;;28.60;54.20;;;;;;4926268;29;20482;-72
2022/07/14 09:48:02;;;;;;;2.37;2.17;;;28.60;54.50;;;;;;4925400;29;20464;-71
2022/07/14 09:50:42;;;;;;;2.60;1.90;;;28.50;54.80;;;;;;4932327;29;20518;-71
2022/07/14 09:53:16;;;;;;;2.40;2.00;;;28.50;54.90;;;;;;4927185;29;20476;-72
2022/07/14 09:55:49;;;;;;;4.77;1.70;;;28.50;55.00;;;;;;4925736;29;20445;-71
2022/07/14 09:58:19;;;;;;;3.50;2.00;;;28.50;55.00;;;;;;4933174;29;20888;-71
2022/07/14 10:00:56;;;;;;;2.93;2.13;;;28.50;55.20;;;;;;4931650;29;20450;-71
2022/07/14 10:03:26;;;;;;;2.47;2.27;;;28.50;55.40;;;;;;4936256;29;20495;-71
2022/07/14 10:05:55;;;;;;;3.70;2.13;;;28.50;55.30;;;;;;4932645;29;20451;-71
2022/07/14 10:08:47;;;;;;;1.93;1.57;;;28.50;55.30;;;;;;4915746;29;20547;-71
2022/07/14 10:11:17;;;;;;;2.30;1.53;;;28.50;55.40;;;;;;4935384;29;20468;-71
2022/07/14 10:13:48;;;;;;;1.80;1.70;;;28.50;55.40;;;;;;4932685;29;20534;-72
2022/07/14 10:16:16;;;;;;;1.87;1.70;;;28.50;55.50;;;;;;4938010;29;20460;-73
2022/07/14 10:18:45;;;;;;;2.33;2.13;;;28.50;55.40;;;;;;4934895;29;20476;-73
2022/07/14 10:21:16;;;;;;;1.97;1.77;;;28.50;55.50;;;;;;4930564;29;20513;-75
2022/07/14 10:23:45;;;;;;;3.80;2.50;;;28.40;55.70;;;;;;4931985;29;20501;-71
2022/07/14 10:26:13;;;;;;;3.50;2.47;;;28.50;55.60;;;;;;4933928;29;21209;-71
2022/07/14 10:28:42;;;;;;;4.70;3.40;;;28.50;55.70;;;;;;4937396;29;20557;-71
2022/07/14 10:31:25;;;;;;;3.40;3.10;;;28.50;55.80;;;;;;4936927;29;20961;-71
2022/07/14 10:34:09;;;;;;;3.33;2.57;;;28.40;56.00;;;;;;4933238;29;20528;-71
2022/07/14 10:36:44;;;;;;;7.20;3.50;;;28.40;56.00;;;;;;4935231;29;20456;-72
2022/07/14 10:39:21;;;;;;;4.73;3.80;;;28.50;56.00;;;;;;4936661;29;20471;-72
2022/07/14 10:42:12;;;;;;;6.00;3.27;;;28.50;56.00;;;;;;4937429;29;20516;-71
2022/07/14 10:44:46;;;;;;;3.50;2.80;;;28.50;56.00;;;;;;4936781;29;20460;-71
2022/07/14 10:47:16;;;;;;;3.43;2.73;;;28.40;56.10;;;;;;4936564;29;20472;-72
2022/07/14 10:50:08;;;;;;;3.40;2.57;;;28.40;56.00;;;;;;4934328;29;20454;-71
2022/07/14 10:52:38;;;;;;;4.40;2.93;;;28.40;56.00;;;;;;4931967;29;20479;-71
2022/07/14 10:55:14;;;;;;;3.20;2.13;;;28.40;56.00;;;;;;4934825;29;20471;-72
2022/07/14 10:58:15;;;;;;;3.53;2.50;;;28.40;56.10;;;;;;4936338;29;20529;-71
2022/07/14 11:00:58;;;;;;;5.57;2.60;;;28.40;56.10;;;;;;4922556;29;20989;-72
2022/07/14 11:03:44;;;;;;;5.63;2.63;;;28.40;56.10;;;;;;4928475;29;20453;-71
2022/07/14 11:06:15;;;;;;;2.87;2.50;;;28.40;56.20;;;;;;4929792;29;20525;-76
2022/07/14 11:09:39;;;;;;;4.70;2.80;;;28.40;56.20;;;;;;4925700;29;20555;-71
2022/07/14 11:12:12;;;;;;;3.27;2.47;;;28.40;56.20;;;;;;4932015;29;20443;-70
2022/07/14 11:14:42;;;;;;;3.17;1.80;;;28.40;56.20;;;;;;4931837;29;20485;-72
2022/07/14 11:17:39;;;;;;;6.03;3.03;;;28.40;56.20;;;;;;4929927;29;20910;-71
2022/07/14 11:20:12;;;;;;;5.33;3.20;;;28.40;56.10;;;;;;4921626;29;20596;-69
2022/07/14 11:22:42;;;;;;;4.17;3.00;;;28.40;56.10;;;;;;4926442;29;20448;-69
2022/07/14 11:25:27;;;;;;;2.30;2.10;;;28.40;56.20;;;;;;4922207;29;20479;-69
2022/07/14 11:27:56;;;;;;;3.80;2.00;;;28.50;56.30;;;;;;4927150;29;20795;-69
2022/07/14 11:30:28;;;;;;;4.50;2.23;;;28.50;56.40;;;;;;4931176;29;20535;-69
2022/07/14 11:33:14;;;;;;;3.73;2.07;;;28.50;56.50;;;;;;4932298;29;20840;-68
2022/07/14 11:39:24;;;;;;;2.47;1.93;;;28.50;56.70;;;;;;4928676;29;20533;-70
2022/07/14 11:42:03;;;;;;;2.60;2.20;;;28.60;56.80;;;;;;4922510;29;20477;-70
2022/07/14 11:44:47;;;;;;;3.87;2.27;;;28.60;56.80;;;;;;4933127;29;20465;-68
2022/07/14 11:47:18;;;;;;;5.83;2.30;;;28.60;57.00;;;;;;4932547;29;20452;-73
2022/07/14 11:49:58;;;;;;;6.30;2.20;;;28.60;57.10;;;;;;4930331;29;20466;-69
2022/07/14 11:52:40;;;;;;;3.40;2.20;;;28.70;57.20;;;;;;4931954;29;20813;-73
2022/07/14 11:55:12;;;;;;;3.50;2.10;;;28.70;57.20;;;;;;4935317;29;20528;-73
2022/07/14 11:57:50;;;;;;;3.33;2.20;;;28.80;57.30;;;;;;4929202;29;20519;-69
2022/07/14 12:00:18;;;;;;;5.50;2.30;;;28.90;57.50;;;;;;4929539;29;20460;-69
2022/07/14 12:02:52;;;;;;;8.83;2.57;;;28.90;57.50;;;;;;4930138;29;20462;-72
2022/07/14 12:05:23;;;;;;;4.83;2.30;;;29.00;57.50;;;;;;4931882;29;20455;-69
2022/07/14 12:07:54;;;;;;;6.50;2.50;;;29.10;57.50;;;;;;4931463;29;20470;-68
2022/07/14 12:10:35;;;;;;;3.40;2.20;;;29.20;57.30;;;;;;4929626;29;20675;-67
2022/07/14 12:13:04;;;;;;;3.57;2.37;;;29.40;57.00;;;;;;4931944;29;20450;-67
2022/07/14 12:15:33;;;;;;;5.23;2.27;;;29.40;56.90;;;;;;4928153;29;20518;-67
2022/07/14 12:18:04;;;;;;;3.20;1.80;;;29.50;56.70;;;;;;4932821;29;20463;-67
2022/07/14 12:20:38;;;;;;;5.57;2.30;;;29.70;56.50;;;;;;4932520;29;20450;-67
2022/07/14 12:23:08;;;;;;;4.00;2.20;;;29.90;56.30;;;;;;4924806;29;21696;-69
2022/07/14 12:25:38;;;;;;;3.73;2.30;;;30.00;56.00;;;;;;4931323;29;20462;-70
2022/07/14 12:28:09;;;;;;;3.40;1.97;;;30.10;55.70;;;;;;4933311;29;20486;-69
2022/07/14 12:30:48;;;;;;;5.57;2.03;;;30.10;55.60;;;;;;4932729;29;20470;-69
2022/07/14 12:33:19;;;;;;;4.90;1.83;;;30.20;55.60;;;;;;4926328;29;20455;-68
2022/07/14 12:35:50;;;;;;;5.33;1.97;;;30.30;55.40;;;;;;4932847;29;20475;-68
2022/07/14 12:38:21;;;;;;;2.10;1.90;;;30.50;55.00;;;;;;4931511;29;20478;-69
2022/07/14 12:40:51;;;;;;;3.00;2.50;;;30.70;54.70;;;;;;4931630;29;20517;-68
2022/07/14 12:43:29;;;;;;;2.33;1.97;;;30.90;54.40;;;;;;4930285;29;20474;-68
2022/07/14 12:46:04;;;;;;;5.93;1.70;;;31.10;54.00;;;;;;4931981;29;20460;-70
2022/07/14 12:48:35;;;;;;;4.13;2.30;;;31.10;54.00;;;;;;4932241;29;20453;-68
2022/07/14 12:51:21;;;;;;;3.80;2.50;;;31.10;53.90;;;;;;4931344;29;20492;-70
2022/07/14 12:53:58;;;;;;;2.27;1.70;;;31.20;53.80;;;;;;4930439;29;20898;-71
2022/07/14 12:56:27;;;;;;;1.70;1.60;;;31.20;53.80;;;;;;4933232;29;21102;-71
2022/07/14 12:58:58;;;;;;;2.50;1.73;;;31.30;53.70;;;;;;4936408;29;20519;-70
2022/07/14 13:01:27;;;;;;;4.17;2.67;;;31.30;53.70;;;;;;4935617;29;20500;-69
2022/07/14 13:03:59;;;;;;;4.80;1.97;;;31.20;53.90;;;;;;4935374;29;20558;-70
2022/07/14 13:06:29;;;;;;;3.30;1.90;;;31.20;53.70;;;;;;4932559;29;20559;-70
2022/07/14 13:08:59;;;;;;;5.67;1.80;;;31.20;54.10;;;;;;4936736;29;20467;-70
2022/07/14 13:11:30;;;;;;;2.70;2.10;;;31.20;54.20;;;;;;4935931;29;20451;-71
2022/07/14 13:14:00;;;;;;;3.23;2.13;;;31.20;54.20;;;;;;4934384;29;20515;-70
2022/07/14 13:16:30;;;;;;;4.10;2.50;;;31.10;54.60;;;;;;4934383;29;20490;-69
2022/07/14 13:19:20;;;;;;;2.30;1.80;;;31.10;54.70;;;;;;4932572;29;20554;-69
2022/07/14 13:22:00;;;;;;;2.07;1.90;;;31.10;54.70;;;;;;4933004;29;20536;-70
2022/07/14 13:24:32;;;;;;;2.77;2.00;;;31.00;54.70;;;;;;4935934;29;20882;-72
2022/07/14 13:27:03;;;;;;;2.60;1.70;;;30.90;54.90;;;;;;4934423;29;20454;-70